sensor_id;sensor_type;location;lat;lon;timestamp;temperature;humidity
74877;HTU21D;64660;44.786;37.680;2022-10-31T00:01:52;12.91;89.19
74877;HTU21D;64660;44.786;37.680;2022-10-31T00:04:20;12.91;89.28
74877;HTU21D;64660;44.786;37.680;2022-10-31T00:06:49;12.92;89.28
74877;HTU21D;64660;44.786;37.680;2022-10-31T00:09:18;12.94;89.26
74877;HTU21D;64660;44.786;37.680;2022-10-31T00:11:47;12.97;89.19
74877;HTU21D;64660;44.786;37.680;2022-10-31T00:14:14;12.99;89.22
74877;HTU21D;64660;44.786;37.680;2022-10-31T00:16:52;12.99;89.15
74877;HTU21D;64660;44.786;37.680;2022-10-31T00:19:21;12.96;89.24
74877;HTU21D;64660;44.786;37.680;2022-10-31T00:21:51;12.94;89.21
74877;HTU21D;64660;44.786;37.680;2022-10-31T00:24:19;12.93;89.33
74877;HTU21D;64660;44.786;37.680;2022-10-31T00:26:47;12.92;89.41
74877;HTU21D;64660;44.786;37.680;2022-10-31T00:29:13;12.95;89.41
74877;HTU21D;64660;44.786;37.680;2022-10-31T00:31:50;12.97;89.37
74877;HTU21D;64660;44.786;37.680;2022-10-31T00:34:17;12.99;89.37
74877;HTU21D;64660;44.786;37.680;2022-10-31T00:36:43;12.97;89.34
74877;HTU21D;64660;44.786;37.680;2022-10-31T00:39:19;12.99;89.34
74877;HTU21D;64660;44.786;37.680;2022-10-31T00:41:47;13.00;89.37
74877;HTU21D;64660;44.786;37.680;2022-10-31T00:44:14;13.02;89.41
74877;HTU21D;64660;44.786;37.680;2022-10-31T00:46:42;13.03;89.38
74877;HTU21D;64660;44.786;37.680;2022-10-31T00:49:10;13.01;89.44
74877;HTU21D;64660;44.786;37.680;2022-10-31T00:51:39;12.96;89.54
74877;HTU21D;64660;44.786;37.680;2022-10-31T00:54:06;12.93;89.61
74877;HTU21D;64660;44.786;37.680;2022-10-31T00:56:34;12.89;89.67
74877;HTU21D;64660;44.786;37.680;2022-10-31T00:59:01;12.86;89.77
74877;HTU21D;64660;44.786;37.680;2022-10-31T01:01:28;12.86;89.83
74877;HTU21D;64660;44.786;37.680;2022-10-31T01:03:57;12.84;89.89
74877;HTU21D;64660;44.786;37.680;2022-10-31T01:06:23;12.85;89.94
74877;HTU21D;64660;44.786;37.680;2022-10-31T01:09:00;12.80;89.98
74877;HTU21D;64660;44.786;37.680;2022-10-31T01:11:29;12.80;90.10
74877;HTU21D;64660;44.786;37.680;2022-10-31T01:13:57;12.82;90.08
74877;HTU21D;64660;44.786;37.680;2022-10-31T01:16:25;12.84;90.06
74877;HTU21D;64660;44.786;37.680;2022-10-31T01:18:51;12.88;90.09
74877;HTU21D;64660;44.786;37.680;2022-10-31T01:21:25;12.92;90.00
74877;HTU21D;64660;44.786;37.680;2022-10-31T01:23:58;12.96;89.94
74877;HTU21D;64660;44.786;37.680;2022-10-31T01:26:28;12.95;89.88
74877;HTU21D;64660;44.786;37.680;2022-10-31T01:28:59;12.95;89.95
74877;HTU21D;64660;44.786;37.680;2022-10-31T01:31:30;12.93;90.08
74877;HTU21D;64660;44.786;37.680;2022-10-31T01:33:59;12.90;90.09
74877;HTU21D;64660;44.786;37.680;2022-10-31T01:36:32;12.92;90.15
74877;HTU21D;64660;44.786;37.680;2022-10-31T01:39:03;12.93;90.18
74877;HTU21D;64660;44.786;37.680;2022-10-31T01:41:32;12.92;90.18
74877;HTU21D;64660;44.786;37.680;2022-10-31T01:49:21;12.92;90.21
74877;HTU21D;64660;44.786;37.680;2022-10-31T01:51:52;12.93;90.13
74877;HTU21D;64660;44.786;37.680;2022-10-31T01:54:24;12.93;90.18
74877;HTU21D;64660;44.786;37.680;2022-10-31T01:56:52;12.92;90.18
74877;HTU21D;64660;44.786;37.680;2022-10-31T01:59:22;12.94;90.22
74877;HTU21D;64660;44.786;37.680;2022-10-31T02:01:51;12.92;90.28
74877;HTU21D;64660;44.786;37.680;2022-10-31T02:04:20;12.91;90.30
74877;HTU21D;64660;44.786;37.680;2022-10-31T02:06:51;12.89;90.32
74877;HTU21D;64660;44.786;37.680;2022-10-31T02:09:20;12.89;90.29
74877;HTU21D;64660;44.786;37.680;2022-10-31T02:11:51;12.91;90.34
74877;HTU21D;64660;44.786;37.680;2022-10-31T02:14:21;12.93;90.37
74877;HTU21D;64660;44.786;37.680;2022-10-31T02:16:51;12.93;90.33
74877;HTU21D;64660;44.786;37.680;2022-10-31T02:19:26;12.88;90.40
74877;HTU21D;64660;44.786;37.680;2022-10-31T02:22:05;12.87;90.41
74877;HTU21D;64660;44.786;37.680;2022-10-31T02:24:52;12.86;90.41
74877;HTU21D;64660;44.786;37.680;2022-10-31T02:27:41;12.88;90.35
74877;HTU21D;64660;44.786;37.680;2022-10-31T02:32:46;12.89;90.45
74877;HTU21D;64660;44.786;37.680;2022-10-31T02:35:25;12.85;90.36
74877;HTU21D;64660;44.786;37.680;2022-10-31T02:38:05;12.80;90.47
74877;HTU21D;64660;44.786;37.680;2022-10-31T02:40:48;12.78;90.63
74877;HTU21D;64660;44.786;37.680;2022-10-31T02:43:43;12.76;90.69
74877;HTU21D;64660;44.786;37.680;2022-10-31T02:46:58;12.75;90.68
74877;HTU21D;64660;44.786;37.680;2022-10-31T02:49:11;12.74;90.75
74877;HTU21D;64660;44.786;37.680;2022-10-31T02:51:41;12.69;90.85
74877;HTU21D;64660;44.786;37.680;2022-10-31T02:54:25;12.64;90.97
74877;HTU21D;64660;44.786;37.680;2022-10-31T02:56:58;12.59;91.00
74877;HTU21D;64660;44.786;37.680;2022-10-31T02:59:29;12.56;91.15
74877;HTU21D;64660;44.786;37.680;2022-10-31T03:04:44;12.53;91.31
74877;HTU21D;64660;44.786;37.680;2022-10-31T03:07:31;12.51;91.23
74877;HTU21D;64660;44.786;37.680;2022-10-31T03:12:39;12.44;91.36
74877;HTU21D;64660;44.786;37.680;2022-10-31T03:15:14;12.35;91.40
74877;HTU21D;64660;44.786;37.680;2022-10-31T03:17:59;12.21;91.70
74877;HTU21D;64660;44.786;37.680;2022-10-31T03:23:24;11.97;92.31
74877;HTU21D;64660;44.786;37.680;2022-10-31T03:25:52;11.91;92.40
74877;HTU21D;64660;44.786;37.680;2022-10-31T03:28:30;11.86;92.36
74877;HTU21D;64660;44.786;37.680;2022-10-31T03:31:00;11.76;92.53
74877;HTU21D;64660;44.786;37.680;2022-10-31T03:33:30;11.62;92.62
74877;HTU21D;64660;44.786;37.680;2022-10-31T03:36:00;11.45;92.82
74877;HTU21D;64660;44.786;37.680;2022-10-31T03:38:30;11.36;93.07
74877;HTU21D;64660;44.786;37.680;2022-10-31T03:41:00;0.00;93.25
74877;HTU21D;64660;44.786;37.680;2022-10-31T03:43:30;11.32;93.26
74877;HTU21D;64660;44.786;37.680;2022-10-31T03:45:59;11.29;92.88
74877;HTU21D;64660;44.786;37.680;2022-10-31T03:48:28;11.14;93.00
74877;HTU21D;64660;44.786;37.680;2022-10-31T03:51:05;11.03;93.33
74877;HTU21D;64660;44.786;37.680;2022-10-31T03:53:39;11.02;93.37
74877;HTU21D;64660;44.786;37.680;2022-10-31T03:59:04;10.89;93.16
74877;HTU21D;64660;44.786;37.680;2022-10-31T04:01:34;10.83;93.31
74877;HTU21D;64660;44.786;37.680;2022-10-31T04:04:02;10.78;93.20
74877;HTU21D;64660;44.786;37.680;2022-10-31T04:06:32;10.72;93.34
74877;HTU21D;64660;44.786;37.680;2022-10-31T04:09:02;10.63;93.37
74877;HTU21D;64660;44.786;37.680;2022-10-31T04:11:31;10.65;93.56
74877;HTU21D;64660;44.786;37.680;2022-10-31T04:14:28;10.74;93.19
74877;HTU21D;64660;44.786;37.680;2022-10-31T04:17:07;10.75;93.13
74877;HTU21D;64660;44.786;37.680;2022-10-31T04:19:40;10.77;93.11
74877;HTU21D;64660;44.786;37.680;2022-10-31T04:22:09;10.82;93.14
74877;HTU21D;64660;44.786;37.680;2022-10-31T04:24:38;10.87;92.92
74877;HTU21D;64660;44.786;37.680;2022-10-31T04:27:07;10.84;93.04
74877;HTU21D;64660;44.786;37.680;2022-10-31T04:29:33;10.86;93.11
74877;HTU21D;64660;44.786;37.680;2022-10-31T04:32:01;10.86;92.99
74877;HTU21D;64660;44.786;37.680;2022-10-31T04:34:30;10.83;93.08
74877;HTU21D;64660;44.786;37.680;2022-10-31T04:36:58;10.79;93.18
74877;HTU21D;64660;44.786;37.680;2022-10-31T04:39:24;10.72;93.39
74877;HTU21D;64660;44.786;37.680;2022-10-31T04:42:12;10.70;93.55
74877;HTU21D;64660;44.786;37.680;2022-10-31T04:44:41;10.81;93.72
74877;HTU21D;64660;44.786;37.680;2022-10-31T04:47:09;11.02;93.42
74877;HTU21D;64660;44.786;37.680;2022-10-31T04:49:36;11.11;93.17
74877;HTU21D;64660;44.786;37.680;2022-10-31T04:52:03;11.16;93.24
74877;HTU21D;64660;44.786;37.680;2022-10-31T04:54:31;11.28;93.39
74877;HTU21D;64660;44.786;37.680;2022-10-31T04:57:27;12.12;92.66
74877;HTU21D;64660;44.786;37.680;2022-10-31T04:59:54;12.97;91.17
74877;HTU21D;64660;44.786;37.680;2022-10-31T05:02:22;13.86;89.54
74877;HTU21D;64660;44.786;37.680;2022-10-31T05:04:58;14.72;88.17
74877;HTU21D;64660;44.786;37.680;2022-10-31T05:07:24;15.52;86.84
74877;HTU21D;64660;44.786;37.680;2022-10-31T05:09:51;16.21;85.67
74877;HTU21D;64660;44.786;37.680;2022-10-31T05:12:21;16.93;84.42
74877;HTU21D;64660;44.786;37.680;2022-10-31T05:15:27;17.93;82.53
74877;HTU21D;64660;44.786;37.680;2022-10-31T05:18:12;18.81;80.66
74877;HTU21D;64660;44.786;37.680;2022-10-31T05:21:12;19.52;79.11
74877;HTU21D;64660;44.786;37.680;2022-10-31T05:23:48;19.95;77.66
74877;HTU21D;64660;44.786;37.680;2022-10-31T05:26:18;20.27;76.54
74877;HTU21D;64660;44.786;37.680;2022-10-31T05:28:44;20.26;76.00
74877;HTU21D;64660;44.786;37.680;2022-10-31T05:31:11;20.28;75.32
74877;HTU21D;64660;44.786;37.680;2022-10-31T05:33:40;20.32;74.89
74877;HTU21D;64660;44.786;37.680;2022-10-31T05:36:07;20.49;74.08
74877;HTU21D;64660;44.786;37.680;2022-10-31T05:38:57;20.72;72.89
74877;HTU21D;64660;44.786;37.680;2022-10-31T05:41:30;20.61;72.97
74877;HTU21D;64660;44.786;37.680;2022-10-31T05:44:13;20.88;72.27
74877;HTU21D;64660;44.786;37.680;2022-10-31T05:47:10;21.15;71.77
74877;HTU21D;64660;44.786;37.680;2022-10-31T05:50:11;21.58;70.93
74877;HTU21D;64660;44.786;37.680;2022-10-31T05:53:00;21.90;68.89
74877;HTU21D;64660;44.786;37.680;2022-10-31T05:55:37;21.69;69.04
74877;HTU21D;64660;44.786;37.680;2022-10-31T05:58:13;21.64;68.79
74877;HTU21D;64660;44.786;37.680;2022-10-31T06:00:59;21.67;68.33
74877;HTU21D;64660;44.786;37.680;2022-10-31T06:03:28;21.30;69.10
74877;HTU21D;64660;44.786;37.680;2022-10-31T06:05:56;20.76;70.00
74877;HTU21D;64660;44.786;37.680;2022-10-31T06:08:48;20.45;70.63
74877;HTU21D;64660;44.786;37.680;2022-10-31T06:11:29;20.55;70.69
74877;HTU21D;64660;44.786;37.680;2022-10-31T06:14:00;21.09;68.92
74877;HTU21D;64660;44.786;37.680;2022-10-31T06:16:38;21.45;67.17
74877;HTU21D;64660;44.786;37.680;2022-10-31T06:19:30;21.90;66.55
74877;HTU21D;64660;44.786;37.680;2022-10-31T06:21:59;22.67;64.54
74877;HTU21D;64660;44.786;37.680;2022-10-31T06:24:28;23.06;63.08
74877;HTU21D;64660;44.786;37.680;2022-10-31T06:27:33;22.36;63.73
74877;HTU21D;64660;44.786;37.680;2022-10-31T06:30:14;21.24;65.92
74877;HTU21D;64660;44.786;37.680;2022-10-31T06:32:42;20.39;66.99
74877;HTU21D;64660;44.786;37.680;2022-10-31T06:35:11;19.61;68.22
74877;HTU21D;64660;44.786;37.680;2022-10-31T06:37:52;19.01;69.52
74877;HTU21D;64660;44.786;37.680;2022-10-31T06:40:29;18.78;69.72
74877;HTU21D;64660;44.786;37.680;2022-10-31T06:43:28;19.16;69.00
74877;HTU21D;64660;44.786;37.680;2022-10-31T06:46:23;19.38;68.23
74877;HTU21D;64660;44.786;37.680;2022-10-31T06:49:27;19.43;67.63
74877;HTU21D;64660;44.786;37.680;2022-10-31T06:52:02;19.33;67.77
74877;HTU21D;64660;44.786;37.680;2022-10-31T06:54:30;19.23;68.13
74877;HTU21D;64660;44.786;37.680;2022-10-31T06:56:57;19.13;68.47
74877;HTU21D;64660;44.786;37.680;2022-10-31T06:59:23;18.98;68.71
74877;HTU21D;64660;44.786;37.680;2022-10-31T07:02:37;18.62;70.00
74877;HTU21D;64660;44.786;37.680;2022-10-31T07:05:13;18.35;70.48
74877;HTU21D;64660;44.786;37.680;2022-10-31T07:08:02;18.25;70.87
74877;HTU21D;64660;44.786;37.680;2022-10-31T07:10:41;18.25;70.68
74877;HTU21D;64660;44.786;37.680;2022-10-31T07:13:19;18.34;70.27
74877;HTU21D;64660;44.786;37.680;2022-10-31T07:16:04;18.32;70.16
74877;HTU21D;64660;44.786;37.680;2022-10-31T07:18:51;18.07;70.60
74877;HTU21D;64660;44.786;37.680;2022-10-31T07:21:19;17.72;71.55
74877;HTU21D;64660;44.786;37.680;2022-10-31T07:23:48;17.40;72.16
74877;HTU21D;64660;44.786;37.680;2022-10-31T07:26:33;17.30;72.59
74877;HTU21D;64660;44.786;37.680;2022-10-31T07:29:11;17.61;72.13
74877;HTU21D;64660;44.786;37.680;2022-10-31T07:31:40;18.24;70.85
74877;HTU21D;64660;44.786;37.680;2022-10-31T07:34:29;18.72;69.61
74877;HTU21D;64660;44.786;37.680;2022-10-31T07:37:22;18.62;68.68
74877;HTU21D;64660;44.786;37.680;2022-10-31T07:39:49;18.57;68.32
74877;HTU21D;64660;44.786;37.680;2022-10-31T07:42:18;18.69;68.20
74877;HTU21D;64660;44.786;37.680;2022-10-31T07:44:47;18.62;67.94
74877;HTU21D;64660;44.786;37.680;2022-10-31T07:47:41;18.38;68.09
74877;HTU21D;64660;44.786;37.680;2022-10-31T07:50:29;18.02;68.69
74877;HTU21D;64660;44.786;37.680;2022-10-31T07:53:14;17.55;69.21
74877;HTU21D;64660;44.786;37.680;2022-10-31T07:56:07;17.28;69.75
74877;HTU21D;64660;44.786;37.680;2022-10-31T07:58:35;17.26;69.99
74877;HTU21D;64660;44.786;37.680;2022-10-31T08:01:12;17.40;69.55
74877;HTU21D;64660;44.786;37.680;2022-10-31T08:03:50;17.38;68.88
74877;HTU21D;64660;44.786;37.680;2022-10-31T08:06:40;17.31;68.81
74877;HTU21D;64660;44.786;37.680;2022-10-31T08:09:18;17.34;68.31
74877;HTU21D;64660;44.786;37.680;2022-10-31T08:11:44;17.47;68.04
74877;HTU21D;64660;44.786;37.680;2022-10-31T08:14:12;17.58;67.56
74877;HTU21D;64660;44.786;37.680;2022-10-31T08:16:40;17.72;67.38
74877;HTU21D;64660;44.786;37.680;2022-10-31T08:19:08;17.81;66.61
74877;HTU21D;64660;44.786;37.680;2022-10-31T08:21:39;17.85;66.84
74877;HTU21D;64660;44.786;37.680;2022-10-31T08:24:19;17.85;65.88
74877;HTU21D;64660;44.786;37.680;2022-10-31T08:26:48;17.69;65.95
74877;HTU21D;64660;44.786;37.680;2022-10-31T08:29:14;17.69;66.16
74877;HTU21D;64660;44.786;37.680;2022-10-31T08:32:01;17.63;65.91
74877;HTU21D;64660;44.786;37.680;2022-10-31T08:34:48;17.53;66.09
74877;HTU21D;64660;44.786;37.680;2022-10-31T08:37:29;17.58;65.48
74877;HTU21D;64660;44.786;37.680;2022-10-31T08:39:57;17.51;65.23
74877;HTU21D;64660;44.786;37.680;2022-10-31T08:42:28;17.47;64.98
74877;HTU21D;64660;44.786;37.680;2022-10-31T08:44:54;17.39;64.63
74877;HTU21D;64660;44.786;37.680;2022-10-31T08:47:31;17.33;65.33
74877;HTU21D;64660;44.786;37.680;2022-10-31T08:49:59;17.19;65.17
74877;HTU21D;64660;44.786;37.680;2022-10-31T08:52:27;17.04;65.50
74877;HTU21D;64660;44.786;37.680;2022-10-31T08:55:01;16.88;65.73
74877;HTU21D;64660;44.786;37.680;2022-10-31T08:57:53;16.67;66.18
74877;HTU21D;64660;44.786;37.680;2022-10-31T09:00:39;16.59;66.81
74877;HTU21D;64660;44.786;37.680;2022-10-31T09:03:13;16.56;66.75
74877;HTU21D;64660;44.786;37.680;2022-10-31T09:05:54;16.48;66.31
74877;HTU21D;64660;44.786;37.680;2022-10-31T09:08:23;16.47;66.81
74877;HTU21D;64660;44.786;37.680;2022-10-31T09:11:03;16.56;66.27
74877;HTU21D;64660;44.786;37.680;2022-10-31T09:13:58;16.59;65.06
74877;HTU21D;64660;44.786;37.680;2022-10-31T09:16:58;16.59;65.56
74877;HTU21D;64660;44.786;37.680;2022-10-31T09:19:40;16.62;65.50
74877;HTU21D;64660;44.786;37.680;2022-10-31T09:22:07;16.69;65.53
74877;HTU21D;64660;44.786;37.680;2022-10-31T09:24:33;16.73;65.48
74877;HTU21D;64660;44.786;37.680;2022-10-31T09:27:01;16.69;64.34
74877;HTU21D;64660;44.786;37.680;2022-10-31T09:29:28;16.71;64.54
74877;HTU21D;64660;44.786;37.680;2022-10-31T09:32:08;16.79;64.61
74877;HTU21D;64660;44.786;37.680;2022-10-31T09:34:42;16.81;64.47
74877;HTU21D;64660;44.786;37.680;2022-10-31T09:37:21;16.77;63.75
74877;HTU21D;64660;44.786;37.680;2022-10-31T09:39:48;16.73;63.31
74877;HTU21D;64660;44.786;37.680;2022-10-31T09:51:15;16.66;62.79
74877;HTU21D;64660;44.786;37.680;2022-10-31T09:54:44;16.63;62.73
74877;HTU21D;64660;44.786;37.680;2022-10-31T09:57:13;16.70;63.52
74877;HTU21D;64660;44.786;37.680;2022-10-31T09:59:44;16.75;62.89
74877;HTU21D;64660;44.786;37.680;2022-10-31T10:05:04;16.59;63.15
74877;HTU21D;64660;44.786;37.680;2022-10-31T10:20:12;16.67;63.14
74877;HTU21D;64660;44.786;37.680;2022-10-31T10:26:06;16.59;63.07
74877;HTU21D;64660;44.786;37.680;2022-10-31T10:28:43;16.62;63.35
74877;HTU21D;64660;44.786;37.680;2022-10-31T10:31:39;16.65;63.08
74877;HTU21D;64660;44.786;37.680;2022-10-31T10:34:49;16.80;62.74
74877;HTU21D;64660;44.786;37.680;2022-10-31T10:37:40;16.88;62.85
74877;HTU21D;64660;44.786;37.680;2022-10-31T10:40:24;16.93;62.60
74877;HTU21D;64660;44.786;37.680;2022-10-31T10:46:19;17.14;62.02
74877;HTU21D;64660;44.786;37.680;2022-10-31T10:51:59;17.28;61.85
74877;HTU21D;64660;44.786;37.680;2022-10-31T10:54:41;17.21;61.92
74877;HTU21D;64660;44.786;37.680;2022-10-31T10:57:27;17.47;61.39
74877;HTU21D;64660;44.786;37.680;2022-10-31T11:00:10;17.87;61.10
74877;HTU21D;64660;44.786;37.680;2022-10-31T11:02:41;18.25;60.47
74877;HTU21D;64660;44.786;37.680;2022-10-31T11:08:04;18.26;60.71
74877;HTU21D;64660;44.786;37.680;2022-10-31T11:10:32;18.06;60.89
74877;HTU21D;64660;44.786;37.680;2022-10-31T11:16:00;17.66;61.44
74877;HTU21D;64660;44.786;37.680;2022-10-31T11:18:47;17.40;62.08
74877;HTU21D;64660;44.786;37.680;2022-10-31T11:23:46;17.56;62.18
74877;HTU21D;64660;44.786;37.680;2022-10-31T11:26:20;17.61;62.24
74877;HTU21D;64660;44.786;37.680;2022-10-31T11:28:59;17.47;62.48
74877;HTU21D;64660;44.786;37.680;2022-10-31T11:31:27;17.37;62.60
74877;HTU21D;64660;44.786;37.680;2022-10-31T11:34:00;17.46;61.89
74877;HTU21D;64660;44.786;37.680;2022-10-31T11:36:42;17.63;61.86
74877;HTU21D;64660;44.786;37.680;2022-10-31T11:39:21;17.79;61.50
74877;HTU21D;64660;44.786;37.680;2022-10-31T11:41:51;17.82;61.28
74877;HTU21D;64660;44.786;37.680;2022-10-31T11:44:30;17.68;61.04
74877;HTU21D;64660;44.786;37.680;2022-10-31T11:47:15;17.44;61.41
74877;HTU21D;64660;44.786;37.680;2022-10-31T11:49:45;17.20;62.07
74877;HTU21D;64660;44.786;37.680;2022-10-31T11:52:33;17.04;62.46
74877;HTU21D;64660;44.786;37.680;2022-10-31T11:57:45;16.46;64.11
74877;HTU21D;64660;44.786;37.680;2022-10-31T12:00:35;16.22;64.83
74877;HTU21D;64660;44.786;37.680;2022-10-31T12:03:41;16.10;65.17
74877;HTU21D;64660;44.786;37.680;2022-10-31T12:06:21;16.04;65.49
74877;HTU21D;64660;44.786;37.680;2022-10-31T12:08:59;15.98;65.66
74877;HTU21D;64660;44.786;37.680;2022-10-31T12:14:13;15.92;66.11
74877;HTU21D;64660;44.786;37.680;2022-10-31T12:16:55;15.87;66.31
74877;HTU21D;64660;44.786;37.680;2022-10-31T12:28:51;15.53;67.68
74877;HTU21D;64660;44.786;37.680;2022-10-31T12:39:31;15.29;67.79
74877;HTU21D;64660;44.786;37.680;2022-10-31T12:47:38;15.06;68.14
74877;HTU21D;64660;44.786;37.680;2022-10-31T12:50:29;15.08;67.98
74877;HTU21D;64660;44.786;37.680;2022-10-31T12:59:41;15.13;68.00
74877;HTU21D;64660;44.786;37.680;2022-10-31T13:02:38;14.99;68.35
74877;HTU21D;64660;44.786;37.680;2022-10-31T13:05:17;14.88;68.66
74877;HTU21D;64660;44.786;37.680;2022-10-31T13:10:40;14.79;68.58
74877;HTU21D;64660;44.786;37.680;2022-10-31T13:13:12;14.64;68.87
74877;HTU21D;64660;44.786;37.680;2022-10-31T13:15:50;14.55;69.13
74877;HTU21D;64660;44.786;37.680;2022-10-31T13:18:35;14.53;69.26
74877;HTU21D;64660;44.786;37.680;2022-10-31T13:21:12;14.47;69.49
74877;HTU21D;64660;44.786;37.680;2022-10-31T13:23:41;14.47;69.54
74877;HTU21D;64660;44.786;37.680;2022-10-31T13:26:13;14.48;69.58
74877;HTU21D;64660;44.786;37.680;2022-10-31T13:31:39;14.44;69.66
74877;HTU21D;64660;44.786;37.680;2022-10-31T13:36:57;14.43;69.68
74877;HTU21D;64660;44.786;37.680;2022-10-31T13:39:30;14.40;69.65
74877;HTU21D;64660;44.786;37.680;2022-10-31T13:42:14;14.36;69.28
74877;HTU21D;64660;44.786;37.680;2022-10-31T13:44:44;14.27;69.30
74877;HTU21D;64660;44.786;37.680;2022-10-31T13:47:20;14.23;69.27
74877;HTU21D;64660;44.786;37.680;2022-10-31T13:49:49;14.19;69.13
74877;HTU21D;64660;44.786;37.680;2022-10-31T13:52:26;14.10;69.23
74877;HTU21D;64660;44.786;37.680;2022-10-31T13:54:53;14.03;69.22
74877;HTU21D;64660;44.786;37.680;2022-10-31T14:02:57;13.84;69.43
74877;HTU21D;64660;44.786;37.680;2022-10-31T14:05:34;13.77;69.67
74877;HTU21D;64660;44.786;37.680;2022-10-31T14:08:04;13.68;69.71
74877;HTU21D;64660;44.786;37.680;2022-10-31T14:10:37;13.63;69.72
74877;HTU21D;64660;44.786;37.680;2022-10-31T14:13:13;13.55;69.89
74877;HTU21D;64660;44.786;37.680;2022-10-31T14:15:54;13.50;70.02
74877;HTU21D;64660;44.786;37.680;2022-10-31T14:21:48;13.27;70.59
74877;HTU21D;64660;44.786;37.680;2022-10-31T14:23:56;13.12;70.87
74877;HTU21D;64660;44.786;37.680;2022-10-31T14:28:54;12.80;71.54
74877;HTU21D;64660;44.786;37.680;2022-10-31T14:31:30;12.56;72.01
74877;HTU21D;64660;44.786;37.680;2022-10-31T14:34:17;12.27;72.58
74877;HTU21D;64660;44.786;37.680;2022-10-31T14:45:14;11.45;74.10
74877;HTU21D;64660;44.786;37.680;2022-10-31T14:53:04;10.85;74.89
74877;HTU21D;64660;44.786;37.680;2022-10-31T14:55:38;10.78;74.93
74877;HTU21D;64660;44.786;37.680;2022-10-31T14:58:18;10.66;75.15
74877;HTU21D;64660;44.786;37.680;2022-10-31T15:00:56;10.55;75.41
74877;HTU21D;64660;44.786;37.680;2022-10-31T15:05:54;10.46;75.60
74877;HTU21D;64660;44.786;37.680;2022-10-31T15:08:35;10.37;75.65
74877;HTU21D;64660;44.786;37.680;2022-10-31T15:11:21;10.20;75.79
74877;HTU21D;64660;44.786;37.680;2022-10-31T15:16:45;9.99;76.27
74877;HTU21D;64660;44.786;37.680;2022-10-31T15:19:15;9.91;76.34
74877;HTU21D;64660;44.786;37.680;2022-10-31T15:21:53;9.83;76.41
74877;HTU21D;64660;44.786;37.680;2022-10-31T15:24:31;9.82;76.53
74877;HTU21D;64660;44.786;37.680;2022-10-31T15:27:04;9.83;76.47
74877;HTU21D;64660;44.786;37.680;2022-10-31T15:29:32;9.95;76.47
74877;HTU21D;64660;44.786;37.680;2022-10-31T15:31:59;10.00;76.42
74877;HTU21D;64660;44.786;37.680;2022-10-31T15:34:39;10.08;76.60
74877;HTU21D;64660;44.786;37.680;2022-10-31T15:37:15;10.15;76.61
74877;HTU21D;64660;44.786;37.680;2022-10-31T15:39:44;10.27;76.56
74877;HTU21D;64660;44.786;37.680;2022-10-31T15:42:30;10.36;76.25
74877;HTU21D;64660;44.786;37.680;2022-10-31T15:45:04;10.33;76.33
74877;HTU21D;64660;44.786;37.680;2022-10-31T15:47:33;10.29;76.43
74877;HTU21D;64660;44.786;37.680;2022-10-31T15:50:00;10.28;76.44
74877;HTU21D;64660;44.786;37.680;2022-10-31T15:52:53;10.27;76.46
74877;HTU21D;64660;44.786;37.680;2022-10-31T15:55:28;10.33;76.40
74877;HTU21D;64660;44.786;37.680;2022-10-31T15:58:15;10.41;76.21
74877;HTU21D;64660;44.786;37.680;2022-10-31T16:00:44;10.46;76.13
74877;HTU21D;64660;44.786;37.680;2022-10-31T16:05:49;10.40;76.42
74877;HTU21D;64660;44.786;37.680;2022-10-31T16:13:36;9.62;77.98
74877;HTU21D;64660;44.786;37.680;2022-10-31T16:16:25;9.32;78.62
74877;HTU21D;64660;44.786;37.680;2022-10-31T16:18:53;9.19;79.14
74877;HTU21D;64660;44.786;37.680;2022-10-31T16:21:24;9.09;79.19
74877;HTU21D;64660;44.786;37.680;2022-10-31T16:24:47;9.02;79.21
74877;HTU21D;64660;44.786;37.680;2022-10-31T16:27:04;8.86;79.32
74877;HTU21D;64660;44.786;37.680;2022-10-31T16:29:45;8.74;79.50
74877;HTU21D;64660;44.786;37.680;2022-10-31T16:32:26;8.71;79.53
74877;HTU21D;64660;44.786;37.680;2022-10-31T16:35:01;8.77;79.70
74877;HTU21D;64660;44.786;37.680;2022-10-31T16:37:32;8.96;79.33
74877;HTU21D;64660;44.786;37.680;2022-10-31T16:40:00;9.22;78.65
74877;HTU21D;64660;44.786;37.680;2022-10-31T16:42:28;9.46;78.14
74877;HTU21D;64660;44.786;37.680;2022-10-31T16:44:55;9.64;77.69
74877;HTU21D;64660;44.786;37.680;2022-10-31T16:47:23;9.75;77.53
74877;HTU21D;64660;44.786;37.680;2022-10-31T16:49:49;9.90;77.29
74877;HTU21D;64660;44.786;37.680;2022-10-31T16:52:36;10.10;76.96
74877;HTU21D;64660;44.786;37.680;2022-10-31T16:55:04;10.21;76.68
74877;HTU21D;64660;44.786;37.680;2022-10-31T16:57:30;10.29;76.59
74877;HTU21D;64660;44.786;37.680;2022-10-31T16:59:57;10.29;76.53
74877;HTU21D;64660;44.786;37.680;2022-10-31T17:02:25;10.25;76.66
74877;HTU21D;64660;44.786;37.680;2022-10-31T17:04:54;10.28;76.52
74877;HTU21D;64660;44.786;37.680;2022-10-31T17:07:20;10.29;76.43
74877;HTU21D;64660;44.786;37.680;2022-10-31T17:10:06;10.34;76.21
74877;HTU21D;64660;44.786;37.680;2022-10-31T17:12:35;10.34;76.01
74877;HTU21D;64660;44.786;37.680;2022-10-31T17:15:05;10.30;75.74
74877;HTU21D;64660;44.786;37.680;2022-10-31T17:17:43;10.11;75.78
74877;HTU21D;64660;44.786;37.680;2022-10-31T17:20:17;9.96;75.71
74877;HTU21D;64660;44.786;37.680;2022-10-31T17:22:54;9.89;75.57
74877;HTU21D;64660;44.786;37.680;2022-10-31T17:25:24;9.74;75.63
74877;HTU21D;64660;44.786;37.680;2022-10-31T17:28:10;9.65;75.49
74877;HTU21D;64660;44.786;37.680;2022-10-31T17:30:55;9.52;75.24
74877;HTU21D;64660;44.786;37.680;2022-10-31T17:33:25;9.39;75.39
74877;HTU21D;64660;44.786;37.680;2022-10-31T17:35:54;9.24;75.54
74877;HTU21D;64660;44.786;37.680;2022-10-31T17:38:20;9.17;75.36
74877;HTU21D;64660;44.786;37.680;2022-10-31T17:41:07;9.10;75.26
74877;HTU21D;64660;44.786;37.680;2022-10-31T17:43:35;9.09;74.86
74877;HTU21D;64660;44.786;37.680;2022-10-31T17:46:04;9.03;74.74
74877;HTU21D;64660;44.786;37.680;2022-10-31T17:48:33;8.96;74.53
74877;HTU21D;64660;44.786;37.680;2022-10-31T17:51:01;8.86;74.57
74877;HTU21D;64660;44.786;37.680;2022-10-31T17:53:33;8.79;74.39
74877;HTU21D;64660;44.786;37.680;2022-10-31T17:56:03;8.74;74.13
74877;HTU21D;64660;44.786;37.680;2022-10-31T17:58:34;8.68;73.99
74877;HTU21D;64660;44.786;37.680;2022-10-31T18:01:09;8.55;74.01
74877;HTU21D;64660;44.786;37.680;2022-10-31T18:03:46;8.43;74.14
74877;HTU21D;64660;44.786;37.680;2022-10-31T18:06:14;8.36;74.06
74877;HTU21D;64660;44.786;37.680;2022-10-31T18:08:43;8.30;73.86
74877;HTU21D;64660;44.786;37.680;2022-10-31T18:11:16;8.19;73.87
74877;HTU21D;64660;44.786;37.680;2022-10-31T18:13:56;8.08;73.89
74877;HTU21D;64660;44.786;37.680;2022-10-31T18:16:25;8.01;73.86